Flight Track Log - Related Links

Times and Time Zones

All times are in EST time to prevent confusion due to time zone crossing. See the RPA3228 flight status page for this flight to view local times or setup timezone preferences in your user account.

Time Position Orientation Groundspeed Altitude Reporting Facility
EST Latitude Longitude Course Direction KTS MPH feet Rate Location/Type
Tue 07:09:29 AM 36.1333 -86.6500 56° Northeast 123 142 1,400  Level Nashville TRACON
Tue 07:09:35 AM 36.1333 -86.6500 56° Northeast 131 151 1,700 2,455 Climbing Nashville TRACON
Tue 07:10:35 AM 36.1667 -86.6000 50° Northeast 203 234 4,100 2,471 Climbing Nashville TRACON
Tue 07:11:17 AM 36.1942 -86.5656 45° Northeast 213 245 5,900 2,796 Climbing Memphis Center
Tue 07:12:00 AM 36.2766 -86.2205 64° Northeast  Level Estimated
Tue 07:12:18 AM 36.2008 -86.4639 85° East 291 335 8,900  Level Memphis Center
Tue 07:13:00 AM 36.3143 -86.1058 50° Northeast  Level Estimated
Tue 07:13:18 AM 36.2008 -86.3503 90° East 324 373 12,000  Level Memphis Center
Tue 07:14:00 AM 36.3520 -85.9910 56° Northeast  Level Estimated
Tue 07:14:19 AM 36.2006 -86.2231 90° East 359 413 14,800  Level Memphis Center
Tue 07:15:19 AM 36.2017 -86.0889 89° East 382 440 17,400 2,380 Climbing Memphis Center
Tue 07:16:20 AM 36.2500 -85.9619 65° Northeast 398 458 19,600 2,231 Climbing Memphis Center
Tue 07:17:20 AM 36.3050 -85.8353 62° Northeast 411 473 21,900 2,136 Climbing Memphis Center
Tue 07:18:18 AM 36.3653 -85.7056 60° Northeast 431 496 23,800 1,916 Climbing Indianapolis Center
Tue 07:19:19 AM 36.4306 -85.5700 59° Northeast 452 520 25,700 1,721 Climbing Indianapolis Center
Tue 07:20:20 AM 36.4969 -85.4297 59° Northeast 464 534 27,300 1,561 Climbing Indianapolis Center
Tue 07:21:22 AM 36.5658 -85.2839 60° Northeast 482 555 28,900 1,366 Climbing Indianapolis Center
Tue 07:22:23 AM 36.6292 -85.1303 63° Northeast 494 568 30,100 1,180 Climbing Indianapolis Center
Tue 07:23:24 AM 36.6814 -84.9628 69° East 512 589 31,300 1,230 Climbing Indianapolis Center
Tue 07:24:25 AM 36.7317 -84.7922 70° East 519 597 32,600 1,279 Climbing Indianapolis Center
Tue 07:25:26 AM 36.7947 -84.5883 69° East 524 603 33,900 1,180 Climbing Indianapolis Center
Tue 07:26:27 AM 36.8411 -84.4328 70° East 524 603 35,000 541 Climbing Indianapolis Center
Tue 07:27:28 AM 36.8914 -84.2658 69° East 512 589 35,000  Level Indianapolis Center
Tue 07:28:30 AM 36.9411 -84.0981 70° East 515 593 35,000  Level Indianapolis Center
Tue 07:29:31 AM 36.9928 -83.9258 69° East 527 606 35,000  Level Indianapolis Center
Tue 07:30:32 AM 37.0458 -83.7544 69° East 528 608 35,000  Level Indianapolis Center
Tue 07:31:33 AM 37.1039 -83.5514 70° East 531 611 35,000  Level Indianapolis Center
Tue 07:32:35 AM 37.1544 -83.3772 70° East 532 612 35,000  Level Indianapolis Center
Tue 07:33:36 AM 37.2056 -83.2019 70° East 533 613 35,000  Level Indianapolis Center
Tue 07:34:37 AM 37.2558 -83.0281 70° East 530 610 35,000  Level Indianapolis Center
Tue 07:35:39 AM 37.3053 -82.8517 71° East 530 610 35,000  Level Indianapolis Center
Tue 07:36:40 AM 37.3553 -82.6756 70° East 534 615 35,000  Level Indianapolis Center
Tue 07:37:41 AM 37.4042 -82.5011 71° East 529 609 35,000  Level Indianapolis Center
Tue 07:38:43 AM 37.4547 -82.3261 70° East 529 609 35,000  Level Indianapolis Center
Tue 07:39:44 AM 37.5031 -82.1508 71° East 528 608 35,000  Level Indianapolis Center
Tue 07:40:46 AM 37.5514 -81.9747 71° East 531 611 35,000  Level Indianapolis Center
Tue 07:41:47 AM 37.5997 -81.8008 71° East 526 605 35,000  Level Indianapolis Center
Tue 07:42:48 AM 37.6464 -81.6244 71° East 527 606 35,000  Level Indianapolis Center
Tue 07:43:50 AM 37.7003 -81.4250 71° East 527 606 35,000  Level Indianapolis Center
Tue 07:44:51 AM 37.7456 -81.2536 71° East 528 608 35,000  Level Indianapolis Center
Tue 07:45:53 AM 37.7931 -81.0861 70° East 523 602 35,000  Level Indianapolis Center
Tue 07:46:54 AM 37.8533 -80.9167 66° East 523 602 35,000  Level Indianapolis Center
Tue 07:47:56 AM 37.9122 -80.7494 66° East 522 601 35,000 -290 Level Indianapolis Center
Tue 07:48:58 AM 37.9719 -80.5811 66° East 523 602 34,400 -958 Descending Indianapolis Center
Tue 07:49:55 AM 38.0394 -80.3958 65° Northeast 528 608 33,100 -1,220 Descending Washington Center
Tue 07:50:56 AM 38.0983 -80.2281 66° East 528 608 32,000 -1,041 Descending Washington Center
Tue 07:51:56 AM 38.1542 -80.0731 65° Northeast 528 608 31,000 -508 Descending Washington Center
Tue 07:52:54 AM 38.2125 -79.9047 66° East 528 608 31,000  Level Washington Center
Tue 07:53:55 AM 38.2728 -79.7361 65° Northeast 528 608 31,000  Level Washington Center
Tue 07:54:56 AM 38.3325 -79.5700 65° Northeast 528 608 31,000  Level Washington Center
Tue 07:55:56 AM 38.3903 -79.4011 66° East 523 602 31,000 -1,109 Level Washington Center
Tue 07:56:55 AM 38.4400 -79.2047 72° East 523 602 28,800 -2,017 Descending Washington Center
Tue 07:57:55 AM 38.4722 -79.0286 77° East 517 595 27,000 -1,438 Descending Washington Center
Tue 07:58:56 AM 38.5003 -78.8522 78° East 507 583 25,900 -1,765 Descending Washington Center
Tue 07:59:54 AM 38.5256 -78.6833 79° East 502 578 23,500 -1,966 Descending Washington Center
Tue 08:00:55 AM 38.5503 -78.5253 79° East 477 549 22,000 -1,230 Descending Washington Center
Tue 08:01:56 AM 38.5769 -78.3722 77° East 452 520 21,000 -1,513 Descending Washington Center
Tue 08:02:54 AM 38.6217 -78.2303 68° East 430 495 19,000 -1,916 Descending Washington Center
Tue 08:03:55 AM 38.6747 -78.0939 63° Northeast 430 495 17,200 -1,983 Descending Washington Center
Tue 08:04:55 AM 38.7233 -77.9625 65° Northeast 419 482 15,000 -2,033 Descending Washington Center
Tue 08:05:56 AM 38.7717 -77.8336 64° Northeast 403 464 13,100 -1,815 Descending Washington Center
Tue 08:06:54 AM 38.8089 -77.7283 66° East 380 437 11,400 -1,613 Descending Washington Center
Tue 08:07:55 AM 38.8569 -77.6042 64° Northeast 348 400 9,900 -1,500 Descending Washington Center
Tue 08:08:26 AM 38.8833 -77.5500 58° Northeast 325 374 9,100 -1,271 Descending Potomac TRACON
Tue 08:09:20 AM 38.9000 -77.4500 78° East 313 360 8,100 -1,333 Descending Potomac TRACON
Tue 08:10:14 AM 38.8667 -77.3667 117° Southeast 305 351 6,700 -1,222 Descending Potomac TRACON
Tue 08:11:08 AM 38.8333 -77.2833 117° Southeast 292 336 5,900 -1,046 Descending Potomac TRACON
Tue 08:12:03 AM 38.8000 -77.2000 117° Southeast 286 329 4,800 -991 Descending Potomac TRACON
Tue 08:13:03 AM 38.7667 -77.1167 117° Southeast 253 291 4,000 -1,150 Descending Potomac TRACON
Tue 08:14:03 AM 38.7333 -77.0500 123° Southeast 189 217 2,500 -1,289 Descending Potomac TRACON
Tue 08:15:04 AM 38.7667 -77.0333 21° North 124 143 1,400 -793 Descending Potomac TRACON
Tue 08:16:04 AM 38.8000 -77.0167 21° North 119 137 900 -550 Descending Potomac TRACON
Tue 08:17:04 AM 38.8333 -77.0167 360° North 118 136 300 -600 Descending Potomac TRACON
Tue 08:19:00 AM 38.8500 -77.0333 North  Level FlightAware

Login

Don't have an account? Register now (free) for customized features, flight alerts, and more!